Time;durP1;ratioP1;P1;durP2;ratioP2;P2;SDS_P1;SDS_P2;PMS_P1;PMS_P2;Temp;Humidity;BMP_temperature;BMP_pressure;BME280_temperature;BME280_humidity;BME280_pressure;Samples;Min_cycle;Max_cycle;Signal;HPM_P1;HPM_P2
2021/04/29 00:01:39;;;;;;;9.13;6.13;;;;;;;;;;5132532;27;20046;-66
2021/04/29 00:04:05;;;;;;;8.43;7.13;;;;;;;;;;5133155;27;20535;-66
2021/04/29 00:06:31;;;;;;;8.45;6.88;;;;;;;;;;5134086;27;20092;-66
2021/04/29 00:08:57;;;;;;;9.00;6.45;;;;;;;;;;5128911;27;20311;-66
2021/04/29 00:11:23;;;;;;;9.02;6.53;;;;;;;;;;5135676;27;20078;-66
2021/04/29 00:13:50;;;;;;;9.30;7.03;;;;;;;;;;5153297;27;20073;-66
2021/04/29 00:16:15;;;;;;;8.07;6.63;;;;;;;;;;5156883;27;20038;-66
2021/04/29 00:18:41;;;;;;;7.90;6.65;;;;;;;;;;5141468;27;20449;-66
2021/04/29 00:21:08;;;;;;;7.35;5.90;;;;;;;;;;5138073;27;20086;-66
2021/04/29 00:23:34;;;;;;;7.68;5.47;;;;;;;;;;5137609;27;20502;-66
2021/04/29 00:26:00;;;;;;;8.18;6.45;;;;;;;;;;5153198;27;20042;-66
2021/04/29 00:28:26;;;;;;;7.32;5.05;;;;;;;;;;5157036;27;20046;-66
2021/04/29 00:30:53;;;;;;;8.93;6.88;;;;;;;;;;5145951;27;20092;-67
2021/04/29 00:33:19;;;;;;;8.50;6.50;;;;;;;;;;5149068;27;20479;-66
2021/04/29 00:35:45;;;;;;;7.55;6.03;;;;;;;;;;5151331;27;20092;-66
2021/04/29 00:38:11;;;;;;;7.55;6.03;;;;;;;;;;5150335;27;20047;-66
2021/04/29 00:40:37;;;;;;;7.35;5.53;;;;;;;;;;5138484;27;20043;-66
2021/04/29 00:43:03;;;;;;;7.97;5.40;;;;;;;;;;5156440;27;20051;-66
2021/04/29 00:45:29;;;;;;;9.93;5.57;;;;;;;;;;5156850;27;20046;-66
2021/04/29 00:47:56;;;;;;;7.55;5.40;;;;;;;;;;5154707;27;20058;-66
2021/04/29 00:50:25;;;;;;;7.35;5.45;;;;;;;;;;5147080;27;20043;-66
2021/04/29 00:52:51;;;;;;;7.50;4.88;;;;;;;;;;5135554;27;20043;-66
2021/04/29 00:55:17;;;;;;;7.38;4.88;;;;;;;;;;5135700;27;20049;-66
2021/04/29 00:57:43;;;;;;;6.65;3.60;;;;;;;;;;5144567;27;20074;-66
2021/04/29 01:00:11;;;;;;;6.00;3.90;;;;;;;;;;5141674;27;20043;-66
2021/04/29 01:02:39;;;;;;;5.53;3.33;;;;;;;;;;5139489;27;20051;-67
2021/04/29 01:05:09;;;;;;;5.43;3.65;;;;;;;;;;5131386;27;20051;-66
2021/04/29 01:07:39;;;;;;;5.85;3.53;;;;;;;;;;5122937;27;20051;-66
2021/04/29 01:10:10;;;;;;;4.40;3.30;;;;;;;;;;5134556;27;20050;-66
2021/04/29 01:12:43;;;;;;;4.78;3.08;;;;;;;;;;5133773;27;20051;-66
2021/04/29 01:15:11;;;;;;;4.70;3.40;;;;;;;;;;5134409;27;20077;-66
2021/04/29 01:17:38;;;;;;;6.07;3.15;;;;;;;;;;5138285;27;20509;-67
2021/04/29 01:20:07;;;;;;;5.72;3.65;;;;;;;;;;5134662;27;20046;-66
2021/04/29 01:22:35;;;;;;;5.53;2.80;;;;;;;;;;5134738;27;20051;-66
2021/04/29 01:25:07;;;;;;;4.45;3.22;;;;;;;;;;5138307;27;20461;-66
2021/04/29 01:27:34;;;;;;;4.93;3.38;;;;;;;;;;5139547;27;20540;-67
2021/04/29 01:30:01;;;;;;;5.95;3.60;;;;;;;;;;5153321;27;20043;-66
2021/04/29 01:32:27;;;;;;;5.22;3.53;;;;;;;;;;5149883;27;20043;-66
2021/04/29 01:34:53;;;;;;;4.80;3.13;;;;;;;;;;5138987;27;20498;-66
2021/04/29 01:37:19;;;;;;;3.92;2.65;;;;;;;;;;5141862;27;20050;-66
2021/04/29 01:39:45;;;;;;;3.45;2.42;;;;;;;;;;5135386;27;20614;-66
2021/04/29 01:42:11;;;;;;;4.50;2.88;;;;;;;;;;5133727;27;20115;-66
2021/04/29 01:44:38;;;;;;;4.57;2.47;;;;;;;;;;5134185;27;20059;-66
2021/04/29 01:47:05;;;;;;;4.72;2.47;;;;;;;;;;5146252;27;20138;-66
2021/04/29 01:49:31;;;;;;;3.60;2.58;;;;;;;;;;5153280;27;20043;-66
2021/04/29 01:51:57;;;;;;;3.50;2.40;;;;;;;;;;5155430;27;20047;-66
2021/04/29 01:54:24;;;;;;;4.93;2.30;;;;;;;;;;5154843;27;20055;-66
2021/04/29 01:56:50;;;;;;;3.33;2.00;;;;;;;;;;5146069;27;20047;-66
2021/04/29 01:59:17;;;;;;;3.22;2.08;;;;;;;;;;5127537;27;20045;-66
2021/04/29 02:01:44;;;;;;;4.70;2.15;;;;;;;;;;5153948;27;20045;-66
2021/04/29 02:04:11;;;;;;;3.47;1.90;;;;;;;;;;5153148;27;20051;-66
2021/04/29 02:06:37;;;;;;;2.97;1.90;;;;;;;;;;5137307;27;20048;-66
2021/04/29 02:09:03;;;;;;;2.65;1.80;;;;;;;;;;5122948;27;20129;-66
2021/04/29 02:11:31;;;;;;;3.85;1.75;;;;;;;;;;5141340;27;20498;-66
2021/04/29 02:13:58;;;;;;;2.60;1.73;;;;;;;;;;5134248;27;20055;-66
2021/04/29 02:16:30;;;;;;;3.13;1.90;;;;;;;;;;5152229;27;20047;-66
2021/04/29 02:18:58;;;;;;;2.53;1.42;;;;;;;;;;5154323;27;20043;-68
2021/04/29 02:21:24;;;;;;;3.40;2.13;;;;;;;;;;5154290;27;20053;-66
2021/04/29 02:23:51;;;;;;;2.78;1.60;;;;;;;;;;5136323;27;20065;-66
2021/04/29 02:26:18;;;;;;;3.30;1.55;;;;;;;;;;5136519;27;20051;-66
2021/04/29 02:28:44;;;;;;;2.63;1.50;;;;;;;;;;5136856;27;20055;-66
2021/04/29 02:31:10;;;;;;;2.83;1.52;;;;;;;;;;5133612;27;20426;-66
2021/04/29 02:33:37;;;;;;;3.15;1.50;;;;;;;;;;5149385;27;20058;-67
2021/04/29 02:36:05;;;;;;;1.67;1.17;;;;;;;;;;5147989;27;20399;-67
2021/04/29 02:38:32;;;;;;;1.70;1.10;;;;;;;;;;5154592;27;20050;-66
2021/04/29 02:40:58;;;;;;;1.58;1.00;;;;;;;;;;5138800;27;20047;-67
2021/04/29 02:43:24;;;;;;;2.72;1.33;;;;;;;;;;5146364;27;20122;-66
2021/04/29 02:45:51;;;;;;;3.25;1.33;;;;;;;;;;5153836;27;20046;-66
2021/04/29 02:48:18;;;;;;;1.80;0.93;;;;;;;;;;5133767;27;20043;-66
2021/04/29 02:50:44;;;;;;;2.17;1.20;;;;;;;;;;5132886;27;20075;-66
2021/04/29 02:53:12;;;;;;;2.33;1.10;;;;;;;;;;5145921;27;20069;-66
2021/04/29 02:55:39;;;;;;;1.13;0.80;;;;;;;;;;5149884;27;20474;-67
2021/04/29 02:58:06;;;;;;;1.33;0.88;;;;;;;;;;5153891;27;20057;-66
2021/04/29 03:00:33;;;;;;;7.63;1.33;;;;;;;;;;5153292;27;20129;-67
2021/04/29 03:02:59;;;;;;;1.40;0.90;;;;;;;;;;5151919;27;20114;-66
2021/04/29 03:05:25;;;;;;;1.70;1.10;;;;;;;;;;5151909;27;20483;-66
2021/04/29 03:07:53;;;;;;;1.40;0.73;;;;;;;;;;5119971;28;20055;-67
2021/04/29 03:10:20;;;;;;;1.70;0.80;;;;;;;;;;5127497;27;20054;-66
2021/04/29 03:12:46;;;;;;;2.63;1.10;;;;;;;;;;5126362;27;20051;-66
2021/04/29 03:15:12;;;;;;;1.95;0.90;;;;;;;;;;5137054;27;20042;-67
2021/04/29 03:17:39;;;;;;;1.17;0.88;;;;;;;;;;5153322;27;20050;-66
2021/04/29 03:20:07;;;;;;;2.00;1.17;;;;;;;;;;5153756;27;20043;-66
2021/04/29 03:22:33;;;;;;;1.83;0.88;;;;;;;;;;5152354;27;20043;-66
2021/04/29 03:24:59;;;;;;;2.58;1.10;;;;;;;;;;5153299;27;20090;-67
2021/04/29 03:27:26;;;;;;;1.30;0.88;;;;;;;;;;5148026;27;20039;-66
2021/04/29 03:29:53;;;;;;;2.28;1.00;;;;;;;;;;5133187;27;20368;-67
2021/04/29 03:32:19;;;;;;;1.73;0.88;;;;;;;;;;5136877;27;20086;-66
2021/04/29 03:34:46;;;;;;;1.10;0.80;;;;;;;;;;5153562;27;20046;-67
2021/04/29 03:37:12;;;;;;;1.10;0.68;;;;;;;;;;5152664;27;20142;-66
2021/04/29 03:39:38;;;;;;;2.03;0.90;;;;;;;;;;5155282;27;20038;-67
2021/04/29 03:42:06;;;;;;;2.30;1.50;;;;;;;;;;5153866;27;20055;-66
2021/04/29 03:44:33;;;;;;;1.48;0.80;;;;;;;;;;5136903;27;20047;-66
2021/04/29 03:46:59;;;;;;;2.03;0.95;;;;;;;;;;5136823;27;20403;-67
2021/04/29 03:49:25;;;;;;;2.22;0.82;;;;;;;;;;5140612;27;20046;-66
2021/04/29 03:51:52;;;;;;;2.00;1.10;;;;;;;;;;5137411;27;20047;-66
2021/04/29 03:54:18;;;;;;;3.38;0.75;;;;;;;;;;5156605;27;20092;-66
2021/04/29 03:56:44;;;;;;;1.63;0.80;;;;;;;;;;5115829;28;20138;-67
2021/04/29 03:59:10;;;;;;;1.77;0.90;;;;;;;;;;5133333;27;20138;-66
2021/04/29 04:01:37;;;;;;;2.42;1.10;;;;;;;;;;5136152;27;20062;-67
2021/04/29 04:04:03;;;;;;;1.48;0.80;;;;;;;;;;5155198;27;20498;-67
2021/04/29 04:06:29;;;;;;;1.55;1.00;;;;;;;;;;5156370;27;20129;-67
2021/04/29 04:08:55;;;;;;;1.73;1.00;;;;;;;;;;5140526;27;20042;-66
2021/04/29 04:11:21;;;;;;;1.70;1.20;;;;;;;;;;5118317;27;20552;-67
2021/04/29 04:13:47;;;;;;;3.22;1.23;;;;;;;;;;5123454;27;20048;-67
2021/04/29 04:16:14;;;;;;;3.13;1.48;;;;;;;;;;5132690;27;20046;-67
2021/04/29 04:18:41;;;;;;;1.02;0.80;;;;;;;;;;5136493;27;20472;-67
2021/04/29 04:21:08;;;;;;;2.42;1.05;;;;;;;;;;5137119;27;20051;-67
2021/04/29 04:23:34;;;;;;;1.60;0.90;;;;;;;;;;5135348;27;20474;-67
2021/04/29 04:26:00;;;;;;;2.60;0.75;;;;;;;;;;5134697;27;20074;-67
2021/04/29 04:28:26;;;;;;;3.00;1.10;;;;;;;;;;5135555;27;20050;-67
2021/04/29 04:30:52;;;;;;;1.27;0.65;;;;;;;;;;5134958;27;20131;-67
2021/04/29 04:33:18;;;;;;;2.38;1.05;;;;;;;;;;5135439;27;20055;-67
2021/04/29 04:35:45;;;;;;;2.00;0.85;;;;;;;;;;5137758;27;20047;-67
2021/04/29 04:38:11;;;;;;;2.83;0.98;;;;;;;;;;5135816;27;20049;-67
2021/04/29 04:40:38;;;;;;;2.47;1.30;;;;;;;;;;5135704;27;20043;-67
2021/04/29 04:43:05;;;;;;;3.85;1.00;;;;;;;;;;5138234;27;20061;-67
2021/04/29 04:45:31;;;;;;;2.38;0.90;;;;;;;;;;5135036;27;20050;-67
2021/04/29 04:47:57;;;;;;;3.38;1.30;;;;;;;;;;5137800;27;20055;-67
2021/04/29 04:50:23;;;;;;;5.13;1.00;;;;;;;;;;5135495;27;20143;-67
2021/04/29 04:52:50;;;;;;;4.15;1.20;;;;;;;;;;5137962;27;20050;-67
2021/04/29 04:55:16;;;;;;;1.27;0.90;;;;;;;;;;5135257;27;20053;-67
2021/04/29 04:57:43;;;;;;;2.58;1.33;;;;;;;;;;5134884;27;20043;-67
2021/04/29 05:00:09;;;;;;;2.42;1.30;;;;;;;;;;5135313;27;20112;-67
2021/04/29 05:02:37;;;;;;;2.67;1.33;;;;;;;;;;5135110;27;20068;-68
2021/04/29 05:05:04;;;;;;;3.00;1.40;;;;;;;;;;5135612;27;20492;-67
2021/04/29 05:07:30;;;;;;;1.20;0.90;;;;;;;;;;5138920;27;20054;-67
2021/04/29 05:09:57;;;;;;;2.30;1.00;;;;;;;;;;5132323;27;20095;-67
2021/04/29 05:12:23;;;;;;;2.30;0.85;;;;;;;;;;5129762;27;20043;-67
2021/04/29 05:14:49;;;;;;;3.10;1.00;;;;;;;;;;5135147;27;20078;-67
2021/04/29 05:17:15;;;;;;;2.03;1.00;;;;;;;;;;5134531;27;20472;-68
2021/04/29 05:19:41;;;;;;;1.90;1.13;;;;;;;;;;5135063;27;20130;-67
2021/04/29 05:22:07;;;;;;;3.85;1.08;;;;;;;;;;5136047;27;20058;-67
2021/04/29 05:24:33;;;;;;;2.47;1.00;;;;;;;;;;5138562;27;20444;-67
2021/04/29 05:27:00;;;;;;;3.30;1.10;;;;;;;;;;5135027;27;20051;-67
2021/04/29 05:29:26;;;;;;;2.90;1.35;;;;;;;;;;5131982;27;20042;-67
2021/04/29 05:31:52;;;;;;;3.92;1.40;;;;;;;;;;5142222;27;20051;-68
2021/04/29 05:34:18;;;;;;;5.95;1.20;;;;;;;;;;5135179;27;20082;-67
2021/04/29 05:36:44;;;;;;;5.35;1.27;;;;;;;;;;5134804;27;20070;-69
2021/04/29 05:39:10;;;;;;;3.33;1.17;;;;;;;;;;5135037;27;20147;-67
2021/04/29 05:41:36;;;;;;;2.05;1.30;;;;;;;;;;5134765;27;20047;-67
2021/04/29 05:44:03;;;;;;;2.70;1.23;;;;;;;;;;5147312;27;20050;-67
2021/04/29 05:46:29;;;;;;;4.50;1.73;;;;;;;;;;5114206;28;20051;-67
2021/04/29 05:48:55;;;;;;;2.85;1.20;;;;;;;;;;5121107;27;20150;-66
2021/04/29 05:51:21;;;;;;;3.67;1.23;;;;;;;;;;5134875;27;20134;-68
2021/04/29 05:53:47;;;;;;;3.58;1.40;;;;;;;;;;5134951;27;20101;-68
2021/04/29 05:56:15;;;;;;;4.90;2.55;;;;;;;;;;5134685;27;20461;-68
2021/04/29 05:58:42;;;;;;;4.75;1.75;;;;;;;;;;5134830;27;20062;-67
2021/04/29 06:01:09;;;;;;;3.75;1.67;;;;;;;;;;5134101;27;20043;-67
2021/04/29 06:03:35;;;;;;;4.97;2.28;;;;;;;;;;5137320;27;20051;-67
2021/04/29 06:06:01;;;;;;;3.92;2.22;;;;;;;;;;5140735;27;20047;-69
2021/04/29 06:08:27;;;;;;;5.47;1.80;;;;;;;;;;5134639;27;20047;-67
2021/04/29 06:10:53;;;;;;;5.30;2.25;;;;;;;;;;5133424;27;20130;-68
2021/04/29 06:13:19;;;;;;;4.28;2.28;;;;;;;;;;5116893;27;20134;-68
2021/04/29 06:15:45;;;;;;;4.65;2.60;;;;;;;;;;5134398;27;20085;-68
2021/04/29 06:18:12;;;;;;;4.82;2.40;;;;;;;;;;5134229;27;20124;-68
2021/04/29 06:20:38;;;;;;;4.15;2.28;;;;;;;;;;5134569;27;20082;-69
2021/04/29 06:23:04;;;;;;;4.90;2.25;;;;;;;;;;5134598;27;20078;-67
2021/04/29 06:25:30;;;;;;;4.63;2.33;;;;;;;;;;5134128;27;20398;-69
2021/04/29 06:27:57;;;;;;;5.57;2.17;;;;;;;;;;5133805;27;20047;-67
2021/04/29 06:30:23;;;;;;;4.07;2.40;;;;;;;;;;5133737;27;20376;-67
2021/04/29 06:32:49;;;;;;;3.55;2.10;;;;;;;;;;5137358;27;20055;-68
2021/04/29 06:35:16;;;;;;;3.47;1.92;;;;;;;;;;5133689;27;20057;-68
2021/04/29 06:37:42;;;;;;;5.82;1.88;;;;;;;;;;5137912;27;20065;-68
2021/04/29 06:40:12;;;;;;;2.17;1.45;;;;;;;;;;5141987;27;20043;-67
2021/04/29 06:42:38;;;;;;;4.57;2.33;;;;;;;;;;5133803;27;20499;-68
2021/04/29 06:45:05;;;;;;;3.50;2.33;;;;;;;;;;5133017;27;20090;-68
2021/04/29 06:47:32;;;;;;;4.43;2.53;;;;;;;;;;5134575;27;20058;-69
2021/04/29 06:49:58;;;;;;;5.78;2.55;;;;;;;;;;5140146;27;20055;-68
2021/04/29 06:52:25;;;;;;;4.45;1.90;;;;;;;;;;5133298;27;20051;-67
2021/04/29 06:54:51;;;;;;;3.92;2.40;;;;;;;;;;5133540;27;20049;-67
2021/04/29 06:57:17;;;;;;;3.33;2.17;;;;;;;;;;5140246;27;20054;-71
2021/04/29 06:59:43;;;;;;;4.80;2.00;;;;;;;;;;5154331;27;20043;-69
2021/04/29 07:02:10;;;;;;;5.40;2.65;;;;;;;;;;5134661;27;20051;-67
2021/04/29 07:04:36;;;;;;;5.35;2.63;;;;;;;;;;5133717;27;20043;-68
2021/04/29 07:07:02;;;;;;;3.42;2.53;;;;;;;;;;5133624;27;20051;-67
2021/04/29 07:09:29;;;;;;;7.00;2.10;;;;;;;;;;5133234;28;20086;-69
2021/04/29 07:11:56;;;;;;;5.13;2.08;;;;;;;;;;5128689;27;20056;-67
2021/04/29 07:14:22;;;;;;;5.22;1.98;;;;;;;;;;5127494;27;20148;-67
2021/04/29 07:16:48;;;;;;;3.88;2.08;;;;;;;;;;5139453;27;20047;-67
2021/04/29 07:19:15;;;;;;;3.35;1.67;;;;;;;;;;5137617;27;20436;-68
2021/04/29 07:21:41;;;;;;;4.88;2.47;;;;;;;;;;5139450;27;20526;-68
2021/04/29 07:24:08;;;;;;;4.95;2.50;;;;;;;;;;5158340;27;20089;-67
2021/04/29 07:26:35;;;;;;;3.00;1.98;;;;;;;;;;5146312;27;20077;-69
2021/04/29 07:29:01;;;;;;;8.05;2.97;;;;;;;;;;5157764;27;20055;-68
2021/04/29 07:31:27;;;;;;;4.80;2.00;;;;;;;;;;5158069;27;20084;-68
2021/04/29 07:33:53;;;;;;;3.83;2.65;;;;;;;;;;5150749;27;20434;-67
2021/04/29 07:36:19;;;;;;;3.78;2.60;;;;;;;;;;5136672;27;20055;-67
2021/04/29 07:38:45;;;;;;;5.70;2.22;;;;;;;;;;5137514;27;20514;-69
2021/04/29 07:41:11;;;;;;;6.40;2.60;;;;;;;;;;5148019;27;20046;-68
2021/04/29 07:43:38;;;;;;;6.20;3.35;;;;;;;;;;5157855;27;20046;-67
2021/04/29 07:46:04;;;;;;;5.43;2.28;;;;;;;;;;5157293;27;20053;-68
2021/04/29 07:48:30;;;;;;;4.90;2.65;;;;;;;;;;5139461;27;20054;-69
2021/04/29 07:50:57;;;;;;;5.65;2.88;;;;;;;;;;5150238;27;20099;-68
2021/04/29 07:53:23;;;;;;;4.03;2.63;;;;;;;;;;5140883;27;20449;-67
2021/04/29 07:55:49;;;;;;;4.90;2.65;;;;;;;;;;5140082;27;20137;-70
2021/04/29 07:58:15;;;;;;;5.40;2.67;;;;;;;;;;5137418;27;20373;-68
2021/04/29 08:00:42;;;;;;;10.00;2.60;;;;;;;;;;5150582;27;20544;-70
2021/04/29 08:03:08;;;;;;;4.65;2.60;;;;;;;;;;5145472;27;20523;-69
2021/04/29 08:05:35;;;;;;;3.65;2.20;;;;;;;;;;5140907;27;20079;-68
2021/04/29 08:08:01;;;;;;;3.67;2.20;;;;;;;;;;5144336;27;20050;-68
2021/04/29 08:10:27;;;;;;;5.53;2.45;;;;;;;;;;5141423;27;20047;-68
2021/04/29 08:12:53;;;;;;;4.85;2.80;;;;;;;;;;5131206;27;20090;-69
2021/04/29 08:15:19;;;;;;;6.25;2.88;;;;;;;;;;5130951;27;20059;-68
2021/04/29 08:17:46;;;;;;;4.93;2.95;;;;;;;;;;5136224;27;20047;-67
2021/04/29 08:20:13;;;;;;;4.50;2.65;;;;;;;;;;5152025;27;20038;-70
2021/04/29 08:22:39;;;;;;;4.80;2.72;;;;;;;;;;5157359;27;20501;-69
2021/04/29 08:25:07;;;;;;;4.38;2.50;;;;;;;;;;5155356;27;20043;-71
2021/04/29 08:27:33;;;;;;;5.82;3.08;;;;;;;;;;5137148;27;20487;-69
2021/04/29 08:29:59;;;;;;;6.00;2.83;;;;;;;;;;5136511;27;20106;-68
2021/04/29 08:32:25;;;;;;;7.10;3.05;;;;;;;;;;5136486;27;20365;-68
2021/04/29 08:34:52;;;;;;;5.03;3.17;;;;;;;;;;5137193;27;20134;-67
2021/04/29 08:37:18;;;;;;;5.15;2.95;;;;;;;;;;5143972;27;20047;-69
2021/04/29 08:39:44;;;;;;;9.23;3.83;;;;;;;;;;5136153;27;20043;-68
2021/04/29 08:42:13;;;;;;;6.30;3.33;;;;;;;;;;5137607;27;20054;-68
2021/04/29 08:44:39;;;;;;;6.45;3.35;;;;;;;;;;5156108;27;20129;-70
2021/04/29 08:47:06;;;;;;;7.90;3.80;;;;;;;;;;5157020;27;20054;-67
2021/04/29 08:49:33;;;;;;;5.28;3.45;;;;;;;;;;5139588;27;20051;-68
2021/04/29 08:52:00;;;;;;;6.63;4.50;;;;;;;;;;5156910;27;20046;-69
2021/04/29 08:54:26;;;;;;;11.25;5.28;;;;;;;;;;5156911;27;20046;-68
2021/04/29 08:56:53;;;;;;;6.90;4.28;;;;;;;;;;5152156;27;20043;-68
2021/04/29 08:59:19;;;;;;;14.02;7.20;;;;;;;;;;5156659;27;20417;-68
2021/04/29 09:01:46;;;;;;;13.38;7.78;;;;;;;;;;5154601;27;20047;-68
2021/04/29 09:04:16;;;;;;;10.20;5.97;;;;;;;;;;5142479;27;20047;-68
2021/04/29 09:06:44;;;;;;;6.47;4.32;;;;;;;;;;5156231;27;20487;-67
2021/04/29 09:09:12;;;;;;;8.07;4.45;;;;;;;;;;5156319;27;20458;-68
2021/04/29 09:11:48;;;;;;;7.78;4.07;;;;;;;;;;5152305;27;20050;-68
2021/04/29 09:14:14;;;;;;;9.02;4.85;;;;;;;;;;5136768;27;20039;-68
2021/04/29 09:16:41;;;;;;;7.50;4.10;;;;;;;;;;5126379;27;20498;-68
2021/04/29 09:19:17;;;;;;;8.25;4.28;;;;;;;;;;5135086;27;20164;-68
2021/04/29 09:21:43;;;;;;;11.23;4.68;;;;;;;;;;5135716;27;20472;-67
2021/04/29 09:24:10;;;;;;;6.72;4.13;;;;;;;;;;5135504;27;20054;-67
2021/04/29 09:26:36;;;;;;;6.03;4.30;;;;;;;;;;5154818;27;20485;-67
2021/04/29 09:29:08;;;;;;;6.90;4.70;;;;;;;;;;5137417;27;20502;-69
2021/04/29 09:31:37;;;;;;;7.38;4.82;;;;;;;;;;5135011;27;20051;-69
2021/04/29 09:34:03;;;;;;;5.50;4.18;;;;;;;;;;5134992;27;20055;-69
2021/04/29 09:36:31;;;;;;;6.93;4.95;;;;;;;;;;5149382;27;20490;-67
2021/04/29 09:38:58;;;;;;;7.28;4.57;;;;;;;;;;5153414;27;20471;-67
2021/04/29 09:41:25;;;;;;;7.15;5.10;;;;;;;;;;5142040;27;20051;-68
2021/04/29 09:43:53;;;;;;;7.85;5.00;;;;;;;;;;5137625;27;20540;-68
2021/04/29 09:46:19;;;;;;;7.60;4.75;;;;;;;;;;5155383;27;20050;-68
2021/04/29 09:48:45;;;;;;;8.20;5.40;;;;;;;;;;5142448;27;20439;-67
2021/04/29 09:51:13;;;;;;;8.80;5.43;;;;;;;;;;5145925;27;20074;-67
2021/04/29 09:53:41;;;;;;;8.10;5.53;;;;;;;;;;5149307;27;20490;-69
2021/04/29 09:56:09;;;;;;;7.10;4.95;;;;;;;;;;5134452;27;20066;-67
2021/04/29 09:58:35;;;;;;;9.95;6.03;;;;;;;;;;5134456;27;20051;-67
2021/04/29 10:01:02;;;;;;;8.68;5.38;;;;;;;;;;5145109;27;20046;-67
2021/04/29 10:03:29;;;;;;;9.43;5.40;;;;;;;;;;5155158;27;20055;-67
2021/04/29 10:05:55;;;;;;;9.25;6.10;;;;;;;;;;5145550;27;20376;-67
2021/04/29 10:08:23;;;;;;;9.80;5.60;;;;;;;;;;5134019;27;20490;-67
2021/04/29 10:10:53;;;;;;;8.77;4.63;;;;;;;;;;5133756;27;20491;-67
2021/04/29 10:13:20;;;;;;;10.23;4.75;;;;;;;;;;5134927;27;20479;-67
2021/04/29 10:15:46;;;;;;;7.10;4.93;;;;;;;;;;5122914;27;20472;-67
2021/04/29 10:18:17;;;;;;;8.40;5.10;;;;;;;;;;5130515;27;20050;-69
2021/04/29 10:20:47;;;;;;;7.22;5.53;;;;;;;;;;5133781;27;20042;-67
2021/04/29 10:23:17;;;;;;;6.15;4.57;;;;;;;;;;5135921;27;20130;-68
2021/04/29 10:25:49;;;;;;;8.98;4.93;;;;;;;;;;5154450;27;20050;-66
2021/04/29 10:28:15;;;;;;;9.75;5.15;;;;;;;;;;5154853;27;20046;-67
2021/04/29 10:30:41;;;;;;;7.65;4.93;;;;;;;;;;5153998;27;20057;-68
2021/04/29 10:33:15;;;;;;;10.02;5.40;;;;;;;;;;5154288;27;20171;-69
2021/04/29 10:35:53;;;;;;;7.00;4.80;;;;;;;;;;5146968;27;20604;-70
2021/04/29 10:38:24;;;;;;;12.10;6.63;;;;;;;;;;5133547;27;20058;-68
2021/04/29 10:40:50;;;;;;;8.02;5.63;;;;;;;;;;5141289;27;20043;-69
2021/04/29 10:43:28;;;;;;;12.57;6.45;;;;;;;;;;5153658;27;20061;-68
2021/04/29 10:45:54;;;;;;;9.68;5.20;;;;;;;;;;5153898;27;20053;-68
2021/04/29 10:48:21;;;;;;;7.90;5.07;;;;;;;;;;5138892;27;20047;-69
2021/04/29 10:50:48;;;;;;;8.15;4.40;;;;;;;;;;5128259;27;20051;-68
2021/04/29 10:53:26;;;;;;;7.13;5.57;;;;;;;;;;5132089;27;20601;-68
2021/04/29 10:55:58;;;;;;;7.65;4.75;;;;;;;;;;5132100;27;20092;-69
2021/04/29 10:58:24;;;;;;;8.13;5.25;;;;;;;;;;5132381;27;20073;-69
2021/04/29 11:01:04;;;;;;;7.47;4.75;;;;;;;;;;5132551;27;20050;-67
2021/04/29 11:03:31;;;;;;;7.68;5.18;;;;;;;;;;5127989;27;20482;-68
2021/04/29 11:06:09;;;;;;;8.57;5.53;;;;;;;;;;5132724;27;20513;-68
2021/04/29 11:08:38;;;;;;;7.78;5.40;;;;;;;;;;5133109;27;20054;-68
2021/04/29 11:11:04;;;;;;;7.55;5.20;;;;;;;;;;5133366;27;20058;-69
2021/04/29 11:13:30;;;;;;;7.78;5.22;;;;;;;;;;5133960;27;20042;-67
2021/04/29 11:15:57;;;;;;;7.53;5.82;;;;;;;;;;5126671;27;20044;-67
2021/04/29 11:18:23;;;;;;;11.00;5.65;;;;;;;;;;5128688;28;20062;-70
2021/04/29 11:20:51;;;;;;;8.02;5.50;;;;;;;;;;5134180;27;20051;-67
2021/04/29 11:23:19;;;;;;;7.82;6.05;;;;;;;;;;5132049;28;20047;-67
2021/04/29 11:25:46;;;;;;;9.18;5.93;;;;;;;;;;5131717;28;20049;-67
2021/04/29 11:28:12;;;;;;;7.65;5.75;;;;;;;;;;5132011;28;20055;-68
2021/04/29 11:30:39;;;;;;;8.05;5.57;;;;;;;;;;5131721;28;20039;-67
2021/04/29 11:33:08;;;;;;;10.13;6.00;;;;;;;;;;5131652;28;20051;-67
2021/04/29 11:35:36;;;;;;;9.85;5.80;;;;;;;;;;5132222;28;20062;-68
2021/04/29 11:38:02;;;;;;;8.07;5.93;;;;;;;;;;5133201;27;20044;-67
2021/04/29 11:40:30;;;;;;;10.45;6.00;;;;;;;;;;5120204;27;20051;-68
2021/04/29 11:42:58;;;;;;;9.05;6.20;;;;;;;;;;5142963;27;20432;-69
2021/04/29 11:45:26;;;;;;;8.48;6.18;;;;;;;;;;5119363;27;20047;-67
2021/04/29 11:47:57;;;;;;;8.77;6.25;;;;;;;;;;5129121;27;20138;-67
2021/04/29 11:50:25;;;;;;;9.48;5.90;;;;;;;;;;5131374;27;20042;-68
2021/04/29 11:52:51;;;;;;;10.55;6.07;;;;;;;;;;5124831;27;20058;-67
2021/04/29 11:55:24;;;;;;;8.18;5.47;;;;;;;;;;5128197;27;20133;-67
2021/04/29 11:57:50;;;;;;;10.45;5.50;;;;;;;;;;5133128;27;20048;-67
2021/04/29 12:00:18;;;;;;;10.05;5.90;;;;;;;;;;5128794;27;20050;-67
2021/04/29 12:02:44;;;;;;;8.10;5.60;;;;;;;;;;5148478;27;20479;-67
2021/04/29 12:05:11;;;;;;;9.98;6.30;;;;;;;;;;5137576;27;20049;-67
2021/04/29 12:07:41;;;;;;;7.35;5.40;;;;;;;;;;5138215;27;20114;-67
2021/04/29 12:10:07;;;;;;;9.65;5.50;;;;;;;;;;5133020;27;20079;-67
2021/04/29 12:12:33;;;;;;;9.38;5.65;;;;;;;;;;5145602;27;20051;-67
2021/04/29 12:14:59;;;;;;;9.48;6.15;;;;;;;;;;5139639;27;20055;-67
2021/04/29 12:17:27;;;;;;;10.23;5.63;;;;;;;;;;5125374;27;20069;-67
2021/04/29 12:19:54;;;;;;;10.45;5.65;;;;;;;;;;5140895;27;20091;-67
2021/04/29 12:22:23;;;;;;;10.57;6.03;;;;;;;;;;5143555;27;20039;-68
2021/04/29 12:24:49;;;;;;;9.38;5.20;;;;;;;;;;5143795;27;20074;-70
2021/04/29 12:27:17;;;;;;;8.10;5.97;;;;;;;;;;5147091;27;20050;-68
2021/04/29 12:29:44;;;;;;;9.15;6.07;;;;;;;;;;5143522;27;20514;-67
2021/04/29 12:32:11;;;;;;;8.10;5.20;;;;;;;;;;5142923;27;20047;-68
2021/04/29 12:34:47;;;;;;;8.48;5.30;;;;;;;;;;5140001;27;20047;-67
2021/04/29 12:37:13;;;;;;;9.05;5.47;;;;;;;;;;5148349;27;20401;-68
2021/04/29 12:39:42;;;;;;;7.15;4.72;;;;;;;;;;5144263;27;20070;-68
2021/04/29 12:42:12;;;;;;;7.13;5.10;;;;;;;;;;5145427;27;20490;-67
2021/04/29 12:44:41;;;;;;;7.28;4.65;;;;;;;;;;5145138;27;20088;-67
2021/04/29 12:47:07;;;;;;;7.28;5.25;;;;;;;;;;5143553;27;20126;-67
2021/04/29 12:53:40;;;;;;;7.57;4.70;;;;;;;;;;5128077;27;20580;-67
2021/04/29 12:56:07;;;;;;;7.60;4.93;;;;;;;;;;5144653;27;20081;-67
2021/04/29 12:58:34;;;;;;;8.57;4.95;;;;;;;;;;5135256;27;20051;-67
2021/04/29 13:01:02;;;;;;;11.20;5.30;;;;;;;;;;5134610;27;20480;-67
2021/04/29 13:03:33;;;;;;;10.18;4.90;;;;;;;;;;5134079;27;20047;-67
2021/04/29 13:06:06;;;;;;;6.47;4.95;;;;;;;;;;5132352;27;20051;-68
2021/04/29 13:08:46;;;;;;;8.80;4.85;;;;;;;;;;5134431;27;20043;-68
2021/04/29 13:11:12;;;;;;;5.68;4.57;;;;;;;;;;5134155;27;20090;-69
2021/04/29 13:13:38;;;;;;;9.57;4.80;;;;;;;;;;5140302;27;20039;-67
2021/04/29 13:16:04;;;;;;;7.25;5.03;;;;;;;;;;5149876;27;20102;-67
2021/04/29 13:18:30;;;;;;;7.55;4.60;;;;;;;;;;5135226;27;20059;-69
2021/04/29 13:20:56;;;;;;;10.07;5.15;;;;;;;;;;5134778;27;20540;-69
2021/04/29 13:23:22;;;;;;;9.80;5.00;;;;;;;;;;5135261;27;20055;-69
2021/04/29 13:25:49;;;;;;;8.88;5.28;;;;;;;;;;5135101;27;20047;-67
2021/04/29 13:28:16;;;;;;;11.75;5.68;;;;;;;;;;5134704;27;20047;-67
2021/04/29 13:30:42;;;;;;;7.60;5.68;;;;;;;;;;5134973;27;20480;-67
2021/04/29 13:33:10;;;;;;;7.05;4.68;;;;;;;;;;5135174;27;20047;-68
2021/04/29 13:35:37;;;;;;;10.68;4.80;;;;;;;;;;5153818;27;20483;-68
2021/04/29 13:38:03;;;;;;;9.15;5.53;;;;;;;;;;5136305;27;20051;-68
2021/04/29 13:40:29;;;;;;;7.82;5.18;;;;;;;;;;5134684;27;20049;-68
2021/04/29 13:42:56;;;;;;;7.38;4.82;;;;;;;;;;5144722;27;20133;-68
2021/04/29 13:45:22;;;;;;;11.43;5.40;;;;;;;;;;5155525;27;20058;-67
2021/04/29 13:47:48;;;;;;;8.85;4.68;;;;;;;;;;5155684;27;20086;-68
2021/04/29 13:50:14;;;;;;;8.30;4.40;;;;;;;;;;5155334;27;20050;-67
2021/04/29 13:52:40;;;;;;;7.90;5.10;;;;;;;;;;5154315;27;20091;-68
2021/04/29 13:55:08;;;;;;;7.97;4.80;;;;;;;;;;5155340;27;20042;-67
2021/04/29 13:57:34;;;;;;;8.23;4.50;;;;;;;;;;5155270;27;20047;-67
2021/04/29 14:00:01;;;;;;;8.25;5.50;;;;;;;;;;5155233;27;20050;-67
2021/04/29 14:02:27;;;;;;;9.43;4.85;;;;;;;;;;5120543;27;20066;-69
2021/04/29 14:04:53;;;;;;;10.98;5.20;;;;;;;;;;5127647;27;20107;-69
2021/04/29 14:07:19;;;;;;;8.68;4.85;;;;;;;;;;5134444;27;20400;-67
2021/04/29 14:09:46;;;;;;;10.10;5.18;;;;;;;;;;5116123;27;20083;-66
2021/04/29 14:12:12;;;;;;;7.90;5.05;;;;;;;;;;5134075;27;20130;-67
2021/04/29 14:14:38;;;;;;;8.82;5.18;;;;;;;;;;5122970;27;20050;-67
2021/04/29 14:17:05;;;;;;;9.52;4.70;;;;;;;;;;5113338;28;20060;-69
2021/04/29 14:19:31;;;;;;;9.88;6.43;;;;;;;;;;5127283;27;20059;-67
2021/04/29 14:21:59;;;;;;;10.55;5.75;;;;;;;;;;5129125;27;20042;-67
2021/04/29 14:24:25;;;;;;;9.45;5.30;;;;;;;;;;5133834;27;20049;-67
2021/04/29 14:26:51;;;;;;;7.63;5.55;;;;;;;;;;5133685;27;20062;-67
2021/04/29 14:29:17;;;;;;;9.45;5.07;;;;;;;;;;5133324;27;20051;-67
2021/04/29 14:31:43;;;;;;;10.80;5.30;;;;;;;;;;5133909;27;20043;-67
2021/04/29 14:34:10;;;;;;;12.65;5.93;;;;;;;;;;5138759;27;20607;-67
2021/04/29 14:36:36;;;;;;;11.10;6.00;;;;;;;;;;5154851;27;20051;-67
2021/04/29 14:39:02;;;;;;;10.80;5.82;;;;;;;;;;5153010;27;20582;-67
2021/04/29 14:41:28;;;;;;;12.13;5.82;;;;;;;;;;5133714;27;20046;-67
2021/04/29 14:43:54;;;;;;;11.52;5.68;;;;;;;;;;5134652;27;20069;-67